WetterOnline ( https://www.wetteronline.de )

Wetter aktuell Großrückerswalde

Aktuelles Wetter: Marienberg (640m)

6-stündlich | Neueste Meldungen
Ortszeit Temperatur Wetter
Fr, 21.06. 20:00 20.5° C leichter Regen
Fr, 21.06. 14:00 24.4° C bedeckt
Fr, 21.06. 8:00 19.1° C wolkenlos
Fr, 21.06. 2:00 16.2° C wolkig
Do, 20.06. 20:00 17.6° C bedeckt
Do, 20.06. 14:00 18.2° C wolkig
Do, 20.06. 8:00 11.2° C wolkig
Do, 20.06. 2:00 10.6° C Nebel
Ortszeit Temperatur Wetter
Sa, 22.06. 1:30 15.9° C leichter Regen
Sa, 22.06. 1:20 15.9° C leichter Regen
Sa, 22.06. 1:10 16.0° C leichter Regen
Sa, 22.06. 1:00 16.2° C leichter Regen
Sa, 22.06. 0:50 16.2° C leichter Regen
Sa, 22.06. 0:40 16.0° C leichter Regen
Sa, 22.06. 0:30 16.6° C leichter Regen
Sa, 22.06. 0:00 17.8° C Regen
Fr, 21.06. 23:30 18.6° C bedeckt
Fr, 21.06. 23:00 18.5° C wolkig
Fr, 21.06. 22:30 19.1° C bedeckt
Ortszeit Relative Feuchte Sichtweite
Fr, 21.06. 20:00 62% 50 km
Fr, 21.06. 14:00 60% 35 km
Fr, 21.06. 8:00 73% 50 km
Fr, 21.06. 2:00 80% 55 km
Do, 20.06. 20:00 73% 50 km
Do, 20.06. 14:00 57% 45 km
Do, 20.06. 8:00 90% 45 km
Do, 20.06. 2:00 99% 9 km
Ortszeit Relative Feuchte Sichtweite
Sa, 22.06. 1:30 91% 30 km
Sa, 22.06. 1:20 91% -
Sa, 22.06. 1:10 91% -
Sa, 22.06. 1:00 91% 40 km
Sa, 22.06. 0:50 91% -
Sa, 22.06. 0:40 93% -
Sa, 22.06. 0:30 87% 15 km
Sa, 22.06. 0:00 78% 8 km
Fr, 21.06. 23:30 69% 45 km
Fr, 21.06. 23:00 69% 50 km
Fr, 21.06. 22:30 64% 50 km
Ortszeit Niederschlagsmenge Niederschlagsart
Fr, 21.06. 20:00 0.2 l/m2 in 12 Std. Regen
Fr, 21.06. 14:00 0.0 l/m2 in 6 Std. -
Fr, 21.06. 8:00 0.0 l/m2 in 12 Std. -
Fr, 21.06. 2:00 0.0 l/m2 in 6 Std. -
Do, 20.06. 20:00 0.0 l/m2 in 12 Std. -
Do, 20.06. 14:00 0.0 l/m2 in 6 Std. -
Do, 20.06. 8:00 0.1 l/m2 in 12 Std. -
Do, 20.06. 2:00 0.1 l/m2 in 6 Std. Regen
Ortszeit Niederschlagsmenge Niederschlagsart
Sa, 22.06. 1:30 <0.05 l/m2 in 30 Min -
Sa, 22.06. 1:20 keine Meldung -
Sa, 22.06. 1:10 keine Meldung -
Sa, 22.06. 1:00 1.6 l/m2 in 1 Std. Regen
Sa, 22.06. 0:50 keine Meldung -
Sa, 22.06. 0:40 keine Meldung -
Sa, 22.06. 0:30 1.0 l/m2 in 30 Min -
Sa, 22.06. 0:00 0.2 l/m2 in 1 Std. Regen
Fr, 21.06. 23:30 0.0 l/m2 in 30 Min -
Fr, 21.06. 23:00 <0.05 l/m2 in 1 Std. Regen
Fr, 21.06. 22:30 0.0 l/m2 in 30 Min -
Ortszeit Stärke Spitze Richtung
km/h Bft. km/h Grad Sektor
Fr, 21.06. 20:00 13 3 57 240° SW
Fr, 21.06. 14:00 13 3 28 220° SW
Fr, 21.06. 8:00 11 2 25 150° SO
Fr, 21.06. 2:00 6 1 22 70° O
Do, 20.06. 20:00 7 2 25 130° SO
Do, 20.06. 14:00 11 2 29 160° S
Do, 20.06. 8:00 4 1 11 80° O
Do, 20.06. 2:00 4 1 22 60° NO
Ortszeit Stärke Spitze Richtung
km/h Bft. km/h Grad Sektor
Sa, 22.06. 1:30 14 3 32 250° W
Sa, 22.06. 1:20 14 3 - 250° W
Sa, 22.06. 1:10 14 3 - 260° W
Sa, 22.06. 1:00 13 3 22 240° SW
Sa, 22.06. 0:50 13 3 - 240° SW
Sa, 22.06. 0:40 11 2 - 240° SW
Sa, 22.06. 0:30 14 3 22 220° SW
Sa, 22.06. 0:00 15 3 26 240° SW
Fr, 21.06. 23:30 11 2 18 210° SW
Fr, 21.06. 23:00 7 2 22 230° SW
Fr, 21.06. 22:30 9 2 22 250° W
Ortszeit Untergrenze Bedeckung Gattung
total tief tief mittel hoch
Fr, 21.06. 20:00 2100 m 8/8 1/8 - - -
Fr, 21.06. 14:00 3600 m 8/8 8/8 - - -
Fr, 21.06. 8:00 - 0/8 0/8 - - -
Fr, 21.06. 2:00 6900 m 7/8 3/8 - - -
Do, 20.06. 20:00 3000 m 8/8 8/8 - - -
Do, 20.06. 14:00 3000 m 5/8 5/8 - - -
Do, 20.06. 8:00 7500 m 8/8 0/8 - - -
Do, 20.06. 2:00 30 m 8/8 8/8 - - -
Ortszeit Bedeckungsgrad in Achtel und Wolkenuntergrenze
Sa, 22.06. 1:30 2(1500m) 7(2400m)
Sa, 22.06. 1:20 2(1500m) 7(2400m)
Sa, 22.06. 1:10 8
Sa, 22.06. 1:00 1(1800m) 7(3900m) 7(4500m)
Sa, 22.06. 0:50 1(1800m) 7(3900m) 7(4500m)
Sa, 22.06. 0:40 7
Sa, 22.06. 0:30 1(1800m) 7(2400m) 7(2700m)
Sa, 22.06. 0:00 2(2100m) 7(2700m) 8(3600m)
Fr, 21.06. 23:30 8(2700m) 8(3300m) 8(4200m)
Fr, 21.06. 23:00 1(1500m) 7(3300m) 8(5100m)
Fr, 21.06. 22:30 8(3000m) 8(3900m) 8(4500m)
Ortszeit Luftdruck NN (hPa) Tendenz (hPa in 3 Std.)
Fr, 21.06. 20:00 1010 - 2,1
Fr, 21.06. 14:00 1012 - 0,4
Fr, 21.06. 8:00 1015 - 0,8
Fr, 21.06. 2:00 1017 - 1,3
Do, 20.06. 20:00 1018 - 1,1
Do, 20.06. 14:00 1021 - 0,4
Do, 20.06. 8:00 1023 + 0,2
Do, 20.06. 2:00 1023 + 0,4
Ortszeit Luftdruck NN (hPa) Tendenz (hPa in 3 Std.)
Sa, 22.06. 1:30 1012 + 1,2
Sa, 22.06. 1:20 1012 keine Meldung
Sa, 22.06. 1:10 1012 keine Meldung
Sa, 22.06. 1:00 1012 + 0,9
Sa, 22.06. 0:50 1012 keine Meldung
Sa, 22.06. 0:40 1012 keine Meldung
Sa, 22.06. 0:30 1012 + 1,2
Sa, 22.06. 0:00 1011 + 0,8
Fr, 21.06. 23:30 1011 + 0,1
Fr, 21.06. 23:00 1011 - 0,1
Fr, 21.06. 22:30 1010 - 0,2
Ortszeit Schneehöhe (cm)
Fr, 21.06. 20:00 0
Fr, 21.06. 14:00 0
Fr, 21.06. 8:00 0
Fr, 21.06. 2:00 0
Do, 20.06. 20:00 0
Do, 20.06. 14:00 0
Do, 20.06. 8:00 0
Do, 20.06. 2:00 0
Ortszeit Schneehöhe (cm)
Sa, 22.06. 1:30 0
Sa, 22.06. 1:20 0
Sa, 22.06. 1:10 -
Sa, 22.06. 1:00 0
Sa, 22.06. 0:50 0
Sa, 22.06. 0:40 -
Sa, 22.06. 0:30 0
Sa, 22.06. 0:00 0
Fr, 21.06. 23:30 0
Fr, 21.06. 23:00 0
Fr, 21.06. 22:30 0
Link zu dieser Seite / Seite empfehlen

Das Wetter in ...